Latest Weather Observations for Kempsey Airport

IDN60801

Issued at 5:35 pm EST Friday 1 August 2014 (issued every 30 minutes, with the page automatically refreshed every 10 minutes)

About weather observations | Map of weather stations | Latest weather observations for NSW | Other Formats
Station Details ID: 059007 Name: KEMPSEY AIRPORT AWS Lat: -31.07 Lon: 152.77 Height: 13.0 m
Data from the previous 72 hours. | See also: Recent months for locations in New South Wales
Date/Time
EST
Temp
°C
App
Temp
°C
Dew
Point
Rel
Hum
%
Delta-T
°C
Wind Press
QNH
hPa
Press
MSL
hPa
Rain
since 9 am
mm
Dir
 
Spd
km/h
Gust
km/h
Spd
kts
Gust
kts
01/05:30pm 21.7 16.0 -3.6 18 10.6 WNW 17 24 9 13 1009.0 - 0.0
01/05:00pm 23.0 16.3 -4.1 16 11.4 NW 22 30 12 16 1008.2 1008.2 0.0
01/04:30pm 24.0 16.9 -4.2 15 11.9 NW 24 32 13 17 1007.7 - 0.0
01/04:00pm 24.9 17.9 -3.5 15 12.3 NW 24 35 13 19 1007.3 1007.3 0.0
01/03:30pm 25.5 17.7 -3.9 14 12.6 NW 28 41 15 22 1006.8 - 0.0
01/03:00pm 26.1 17.9 -4.4 13 13.1 NW 30 52 16 28 1006.4 1006.4 0.0
01/02:51pm 25.9 17.3 -4.6 13 13.0 NW 32 52 17 28 1006.4 - 0.0
01/02:30pm 26.2 17.0 -4.4 13 13.1 NW 35 48 19 26 1006.2 - 0.0
01/02:10pm 26.8 18.6 -3.9 13 13.3 NW 30 50 16 27 1006.0 - 0.0
01/02:00pm 26.8 18.7 -2.9 14 13.2 NW 30 46 16 25 1006.1 1006.1 0.0
01/01:40pm 26.9 17.8 -3.8 13 13.4 WNW 35 54 19 29 1006.1 - 0.0
01/01:30pm 26.5 17.3 -4.1 13 13.2 NW 35 52 19 28 1006.2 - 0.0
01/01:00pm 26.6 17.5 -4.0 13 13.3 WNW 35 56 19 30 1006.4 1006.4 0.0
01/12:30pm 26.9 18.2 -3.8 13 13.4 WNW 33 54 18 29 1006.8 - 0.0
01/12:16pm 27.5 19.9 -2.3 14 13.4 WNW 28 46 15 25 1006.9 - 0.0
01/12:00pm 27.1 21.3 -1.7 15 13.1 W 19 28 10 15 1007.3 1007.3 0.0
01/11:30am 26.2 20.0 0.0 18 12.2 NNW 22 32 12 17 1007.6 - 0.0
01/11:00am 25.0 18.2 0.5 20 11.4 N 26 35 14 19 1008.1 1008.1 0.0
01/10:30am 24.4 18.5 1.9 23 10.7 NW 22 32 12 17 1008.6 - 0.0
01/10:17am 24.1 21.3 5.0 29 9.6 N 9 17 5 9 1008.9 - 0.0
01/10:00am 19.1 17.3 7.8 48 5.8 E 7 11 4 6 1009.3 1009.3 0.0
01/09:30am 15.1 13.5 6.4 56 4.2 NNW 4 7 2 4 1010.3 - 0.0
01/09:00am 11.6 9.1 5.0 64 3.0 WSW 7 11 4 6 1010.6 1010.6 0.0
01/08:30am 10.1 7.8 5.7 74 2.0 NNW 7 11 4 6 1010.7 - 0.0
01/08:00am 7.1 6.0 5.3 88 0.8 CALM 0 6 0 3 1010.7 1010.7 0.0
01/07:30am 3.6 0.9 2.7 94 0.4 WSW 6 11 3 6 1010.8 - 0.0
01/07:00am 1.9 -1.1 1.0 94 0.3 W 6 11 3 6 1010.2 1010.2 0.0
01/06:30am 1.9 0.1 1.0 94 0.3 W 0 7 0 4 1010.3 - 0.0
01/06:00am 1.3 -0.6 0.3 93 0.4 CALM 0 0 0 0 1010.2 1010.2 0.0
01/05:30am 1.4 -0.9 0.5 94 0.3 SW 2 6 1 3 1010.3 - 0.0
01/05:00am 1.9 0.1 0.9 93 0.4 CALM 0 0 0 0 1010.4 1010.4 0.0
01/04:30am 2.6 0.1 1.7 94 0.3 WSW 4 7 2 4 1010.5 - 0.0
01/04:00am 2.1 0.3 1.2 94 0.3 CALM 0 0 0 0 1010.5 1010.5 0.0
01/03:30am 2.4 0.6 1.4 93 0.4 CALM 0 0 0 0 1010.9 - 0.0
01/03:00am 2.3 -0.8 1.3 93 0.4 S 7 11 4 6 1011.0 1011.0 0.0
01/02:30am 3.1 0.1 2.1 93 0.4 WSW 7 9 4 5 1011.3 - 0.0
01/02:00am 3.1 1.4 2.1 93 0.4 CALM 0 0 0 0 1011.7 1011.7 0.0
01/01:30am 4.2 2.7 3.2 93 0.4 CALM 0 0 0 0 1012.0 - 0.0
01/01:00am 3.6 0.9 2.4 92 0.5 ESE 6 15 3 8 1012.1 1012.1 0.0
01/12:30am 3.4 0.4 1.9 90 0.6 NNW 7 11 4 6 1012.3 - 0.0
01/12:00am 5.7 3.4 4.7 93 0.4 N 6 7 3 4 1012.4 1012.4 0.0
 
Date/Time
EST
Temp
°C
App
Temp
°C
Dew
Point
Rel
Hum
%
Delta-T
°C
Wind Press
QNH
hPa
Press
MSL
hPa
Rain
since 9 am
mm
Dir
 
Spd
km/h
Gust
km/h
Spd
kts
Gust
kts
31/11:30pm 4.1 2.6 3.1 93 0.4 CALM 0 6 0 3 1012.6 - 0.0
31/11:00pm 4.7 2.1 3.2 90 0.6 SSW 6 9 3 5 1012.5 1012.5 0.0
31/10:30pm 4.8 2.5 2.7 86 0.9 SW 4 9 2 5 1012.9 - 0.0
31/10:00pm 6.5 3.3 5.0 90 0.7 NNW 11 13 6 7 1013.0 1013.0 0.0
31/09:30pm 7.0 5.2 5.5 90 0.7 NNE 4 11 2 6 1013.5 - 0.0
31/09:00pm 7.3 6.3 5.8 90 0.7 CALM 0 0 0 0 1013.5 1013.5 0.0
31/08:30pm 7.4 5.1 5.0 85 1.1 N 6 7 3 4 1013.6 - 0.0
31/08:00pm 8.7 6.2 4.7 76 1.8 W 7 11 4 6 1013.4 1013.4 0.0
31/07:30pm 9.2 7.1 5.9 80 1.5 W 6 9 3 5 1013.0 - 0.0
31/07:00pm 10.6 9.9 6.9 78 1.8 CALM 0 0 0 0 1012.6 1012.6 0.0
31/06:30pm 11.6 10.0 6.5 71 2.4 SSW 4 7 2 4 1012.5 - 0.0
31/06:00pm 14.0 13.4 7.5 65 3.2 CALM 0 6 0 3 1012.3 1012.3 0.0
31/05:30pm 15.4 14.2 6.4 55 4.4 SSE 2 7 1 4 1012.0 - 0.0
31/05:00pm 19.3 16.9 6.8 44 6.3 NE 9 13 5 7 1011.8 1011.8 0.0
31/04:30pm 21.2 17.6 6.7 39 7.4 NE 15 20 8 11 1011.6 - 0.0
31/04:00pm 22.4 17.6 4.9 32 8.7 NE 19 28 10 15 1011.4 1011.4 0.0
31/03:30pm 23.6 18.9 5.0 30 9.3 NE 19 26 10 14 1011.5 - 0.0
31/03:00pm 24.0 18.0 3.3 26 10.1 NE 24 30 13 16 1011.6 1011.6 0.0
31/02:30pm 25.7 21.0 1.1 20 11.6 NE 15 22 8 12 1012.1 - 0.0
31/02:00pm 26.2 20.8 -1.6 16 12.5 N 17 24 9 13 1012.5 1012.5 0.0
31/01:30pm 26.3 20.5 -1.5 16 12.6 NNW 19 26 10 14 1013.1 - 0.0
31/01:00pm 25.9 20.5 -1.0 17 12.2 WNW 17 24 9 13 1014.1 1014.1 0.0
31/12:30pm 26.0 19.7 -0.9 17 12.3 NNW 22 33 12 18 1014.9 - 0.0
31/12:00pm 25.5 19.8 -0.5 18 11.9 NNW 19 30 10 16 1015.7 1015.7 0.0
31/11:30am 24.9 20.1 2.4 23 10.8 NNW 17 26 9 14 1016.6 - 0.0
31/11:00am 23.1 17.5 0.9 23 10.2 NNW 20 30 11 16 1017.4 1017.4 0.0
31/10:30am 22.4 17.1 2.0 26 9.6 NNW 19 26 10 14 1017.8 - 0.0
31/10:00am 20.9 16.4 2.2 29 8.7 NW 15 24 8 13 1018.1 1018.1 0.0
31/09:30am 19.2 15.2 3.0 34 7.5 NW 13 17 7 9 1018.4 - 0.0
31/09:00am 16.9 13.4 3.6 41 6.1 WNW 11 15 6 8 1018.8 1018.8 0.0
31/08:30am 13.1 10.9 6.0 62 3.4 W 7 13 4 7 1019.0 - 0.0
31/08:00am 9.3 7.0 5.5 77 1.7 SW 7 9 4 5 1019.1 1019.1 0.0
31/07:30am 6.6 3.6 4.3 85 1.0 SW 9 9 5 5 1018.9 - 0.0
31/07:00am 4.4 1.4 1.9 84 1.0 WSW 7 15 4 8 1018.9 1018.9 0.0
31/06:30am 2.8 0.3 1.3 90 0.6 SW 4 9 2 5 1018.9 - 0.0
31/06:00am 2.9 0.0 1.6 91 0.5 SW 6 7 3 4 1018.6 1018.6 0.0
31/05:30am 2.8 0.6 1.0 88 0.7 SW 2 7 1 4 1018.4 - 0.0
31/05:00am 3.8 0.4 1.7 86 0.8 WSW 9 13 5 7 1018.1 1018.1 0.0
31/04:30am 4.0 0.2 2.0 87 0.8 WSW 11 13 6 7 1017.9 - 0.0
31/04:00am 4.3 0.6 2.3 87 0.8 WSW 11 15 6 8 1017.9 1017.9 0.0
31/03:30am 4.0 1.0 2.2 88 0.7 SW 7 11 4 6 1017.8 - 0.0
31/03:00am 2.9 0.0 1.4 90 0.6 WSW 6 9 3 5 1017.8 1017.8 0.0
31/02:30am 3.8 0.8 2.2 89 0.6 WSW 7 9 4 5 1018.0 - 0.0
31/02:00am 3.9 1.0 2.6 91 0.5 W 7 11 4 6 1018.2 1018.2 0.0
31/01:30am 3.2 0.3 1.7 90 0.6 SW 6 11 3 6 1018.4 - 0.0
31/01:00am 4.7 3.3 3.4 91 0.5 CALM 0 0 0 0 1018.7 1018.7 0.0
31/12:30am 4.2 0.6 3.2 93 0.4 W 11 13 6 7 1018.9 - 0.0
31/12:00am 4.2 1.5 2.6 89 0.6 W 6 7 3 4 1019.1 1019.1 0.0
 
Date/Time
EST
Temp
°C
App
Temp
°C
Dew
Point
Rel
Hum
%
Delta-T
°C
Wind Press
QNH
hPa
Press
MSL
hPa
Rain
since 9 am
mm
Dir
 
Spd
km/h
Gust
km/h
Spd
kts
Gust
kts
30/11:30pm 4.4 2.5 2.8 89 0.6 W 2 6 1 3 1019.2 - 0.0
30/11:00pm 4.7 1.4 2.7 87 0.8 W 9 9 5 5 1019.1 1019.1 0.0
30/10:30pm 5.1 3.7 3.3 88 0.7 CALM 0 0 0 0 1019.2 - 0.0
30/10:00pm 5.4 4.0 3.3 86 0.9 CALM 0 6 0 3 1019.3 1019.3 0.0
30/09:30pm 5.7 3.5 3.4 85 1.0 NW 4 7 2 4 1019.2 - 0.0
30/09:00pm 7.3 4.9 4.4 82 1.3 NW 6 7 3 4 1019.1 1019.1 0.0
30/08:30pm 7.4 5.6 3.6 77 1.6 SSW 2 7 1 4 1019.0 - 0.0
30/08:00pm 8.8 6.5 4.8 76 1.8 W 6 7 3 4 1018.7 1018.7 0.0
30/07:30pm 10.1 7.7 4.3 67 2.6 NE 6 13 3 7 1018.2 - 0.0
30/07:00pm 12.5 9.7 6.8 68 2.7 S 11 13 6 7 1018.2 1018.2 0.0
30/06:30pm 14.4 12.8 4.4 51 4.6 ESE 2 7 1 4 1017.7 - 0.0
30/06:00pm 15.5 14.3 4.8 49 5.0 CALM 0 6 0 3 1017.2 1017.2 0.0
30/05:30pm 17.4 13.4 2.6 37 6.7 NNE 13 17 7 9 1016.9 - 0.0
30/05:00pm 21.1 17.5 0.9 26 9.2 N 9 13 5 7 1016.8 1016.8 0.0
30/04:30pm 23.6 19.3 0.7 22 10.6 N 13 17 7 9 1016.6 - 0.0
30/04:00pm 24.7 20.0 0.9 21 11.1 N 15 20 8 11 1016.5 1016.5 0.0
30/03:30pm 25.2 20.1 0.7 20 11.4 NNW 17 24 9 13 1016.6 - 0.0
30/03:00pm 25.8 20.7 0.5 19 11.8 NNW 17 26 9 14 1016.4 1016.4 0.0
30/02:30pm 25.8 21.8 0.5 19 11.8 NNW 11 20 6 11 1016.6 - 0.0
30/02:00pm 25.4 21.0 0.1 19 11.7 NW 13 24 7 13 1016.9 1016.9 0.0
30/01:30pm 25.3 20.8 0.0 19 11.7 NNW 13 20 7 11 1017.3 - 0.0
30/01:00pm 24.9 21.0 1.1 21 11.1 NNW 11 17 6 9 1018.0 1018.0 0.0
30/12:30pm 24.3 19.9 0.6 21 11.0 NW 13 20 7 11 1018.7 - 0.0
30/12:00pm 24.0 19.7 1.0 22 10.7 NNW 13 17 7 9 1019.3 1019.3 0.0
30/11:30am 23.1 18.7 0.2 22 10.4 WNW 13 19 7 10 1019.8 - 0.0
30/11:00am 22.7 18.4 1.1 24 9.9 NW 13 20 7 11 1020.2 1020.2 0.0
30/10:30am 21.5 16.8 1.2 26 9.3 NW 15 20 8 11 1020.9 - 0.0
30/10:00am 20.6 16.2 2.9 31 8.3 NNW 15 24 8 13 1021.1 1021.1 0.0
30/09:30am 18.9 14.1 2.7 34 7.5 NNW 17 22 9 12 1021.1 - 0.0
30/09:00am 16.7 12.4 3.4 41 6.1 NW 15 22 8 12 1021.3 1021.3 0.0
30/08:30am 13.9 10.0 5.3 56 4.0 WNW 15 20 8 11 1021.1 - 0.0
30/08:21am 12.8 8.9 5.2 60 3.5 WNW 15 20 8 11 1021.2 - 0.0
30/08:00am 7.8 5.3 6.7 93 0.5 WSW 9 17 5 9 1021.2 1021.2 0.0
30/07:30am 2.9 0.8 2.0 94 0.4 S 2 6 1 3 1021.0 - 0.0
30/07:00am 1.6 -0.3 0.7 94 0.3 CALM 0 6 0 3 1020.8 1020.8 0.0
30/06:30am 1.2 -0.8 0.2 93 0.4 CALM 0 0 0 0 1020.5 - 0.0
30/06:00am 0.9 -2.3 -0.2 92 0.4 SW 6 7 3 4 1020.2 1020.2 0.0
30/05:30am 1.0 -2.3 0.0 93 0.4 WSW 7 11 4 6 1020.0 - 0.0
30/05:00am 0.3 -1.8 -1.0 91 0.5 CALM 0 0 0 0 1019.8 1019.8 0.0
30/04:30am 0.9 -2.2 -0.1 93 0.4 WSW 6 9 3 5 1019.4 - 0.0
30/04:00am 1.4 -0.5 0.5 94 0.3 CALM 0 0 0 0 1019.4 1019.4 0.0
30/03:30am 0.6 -2.8 -0.4 93 0.4 WSW 7 9 4 5 1019.4 - 0.0
30/03:00am 1.4 -2.2 0.5 94 0.3 WSW 9 11 5 6 1019.4 1019.4 0.0
30/02:30am 2.0 -1.9 1.1 94 0.3 WSW 11 13 6 7 1019.5 - 0.0
30/02:00am 1.4 -0.5 0.4 93 0.4 CALM 0 0 0 0 1019.6 1019.6 0.0
30/01:30am 2.0 0.2 1.0 93 0.4 CALM 0 0 0 0 1019.7 - 0.0
30/01:00am 2.6 -0.5 1.4 92 0.5 WSW 7 9 4 5 1019.9 1019.9 0.0
30/12:30am 3.3 -0.1 2.1 92 0.5 WSW 9 11 5 6 1019.9 - 0.0
30/12:00am 4.3 1.7 3.1 92 0.5 WSW 6 7 3 4 1019.9 1019.9 0.0
 
Date/Time
EST
Temp
°C
App
Temp
°C
Dew
Point
Rel
Hum
%
Delta-T
°C
Wind Press
QNH
hPa
Press
MSL
hPa
Rain
since 9 am
mm
Dir
 
Spd
km/h
Gust
km/h
Spd
kts
Gust
kts
29/11:30pm 4.8 1.7 3.6 92 0.5 SW 9 17 5 9 1019.9 - 0.0
29/11:00pm 4.2 1.0 2.9 91 0.5 WSW 9 11 5 6 1019.9 1019.9 0.0
29/10:30pm 3.5 1.0 1.4 86 0.8 W 4 9 2 5 1020.0 - 0.0
29/10:00pm 5.6 3.2 4.1 90 0.6 W 6 7 3 4 1020.2 1020.2 0.0
29/09:30pm 5.5 3.9 2.7 82 1.1 CALM 0 0 0 0 1020.1 - 0.0
29/09:00pm 7.2 5.2 4.5 83 1.2 W 4 7 2 4 1019.9 1019.9 0.0
29/08:30pm 8.2 6.9 6.2 87 0.9 N 2 7 1 4 1020.0 - 0.0
29/08:00pm 7.7 4.4 4.7 81 1.3 WSW 11 13 6 7 1020.1 1020.1 0.0
29/07:30pm 9.6 7.7 6.5 81 1.4 WSW 6 9 3 5 1019.4 - 0.0
29/07:00pm 10.1 8.4 5.9 75 1.9 SSW 4 9 2 5 1019.0 1019.0 0.0
29/06:30pm 11.9 10.1 5.3 64 3.0 NNE 4 6 2 3 1018.8 - 0.0
29/06:00pm 14.2 11.7 6.6 60 3.7 E 9 11 5 6 1018.4 1018.4 0.0

Other Formats:

Comma delimited format used in spreadsheet applications
http://www.bom.gov.au/fwo/IDN60801/IDN60801.94785.axf

JavaScript Object Notation format (JSON) in row-major order
http://www.bom.gov.au/fwo/IDN60801/IDN60801.94785.json